sensor_id;sensor_type;location;lat;lon;timestamp;P1;durP1;ratioP1;P2;durP2;ratioP2
31004;SDS011;17676;52.254;4.490;2024-01-06T00:02:08;4.50;;;3.15;;
31004;SDS011;17676;52.254;4.490;2024-01-06T00:04:34;6.43;;;3.55;;
31004;SDS011;17676;52.254;4.490;2024-01-06T00:07:01;6.90;;;2.72;;
31004;SDS011;17676;52.254;4.490;2024-01-06T00:09:28;5.95;;;2.97;;
31004;SDS011;17676;52.254;4.490;2024-01-06T00:11:54;3.53;;;2.95;;
31004;SDS011;17676;52.254;4.490;2024-01-06T00:14:21;7.15;;;2.50;;
31004;SDS011;17676;52.254;4.490;2024-01-06T00:16:47;3.55;;;2.47;;
31004;SDS011;17676;52.254;4.490;2024-01-06T00:19:14;6.30;;;2.72;;
31004;SDS011;17676;52.254;4.490;2024-01-06T00:21:41;2.95;;;1.83;;
31004;SDS011;17676;52.254;4.490;2024-01-06T00:24:07;4.90;;;1.58;;
31004;SDS011;17676;52.254;4.490;2024-01-06T00:26:34;2.95;;;1.40;;
31004;SDS011;17676;52.254;4.490;2024-01-06T00:29:01;5.32;;;1.60;;
31004;SDS011;17676;52.254;4.490;2024-01-06T00:31:27;1.80;;;1.70;;
31004;SDS011;17676;52.254;4.490;2024-01-06T00:33:54;4.53;;;1.67;;
31004;SDS011;17676;52.254;4.490;2024-01-06T00:36:21;4.18;;;1.65;;
31004;SDS011;17676;52.254;4.490;2024-01-06T00:38:47;2.72;;;1.33;;
31004;SDS011;17676;52.254;4.490;2024-01-06T00:41:14;3.20;;;1.33;;
31004;SDS011;17676;52.254;4.490;2024-01-06T00:43:41;4.78;;;1.38;;
31004;SDS011;17676;52.254;4.490;2024-01-06T00:46:08;3.67;;;1.45;;
31004;SDS011;17676;52.254;4.490;2024-01-06T00:48:35;3.05;;;1.75;;
31004;SDS011;17676;52.254;4.490;2024-01-06T00:51:02;5.22;;;1.17;;
31004;SDS011;17676;52.254;4.490;2024-01-06T00:53:29;1.27;;;0.75;;
31004;SDS011;17676;52.254;4.490;2024-01-06T00:55:55;1.83;;;0.45;;
31004;SDS011;17676;52.254;4.490;2024-01-06T00:58:22;4.68;;;0.70;;
31004;SDS011;17676;52.254;4.490;2024-01-06T01:00:49;3.22;;;0.93;;
31004;SDS011;17676;52.254;4.490;2024-01-06T01:03:16;8.15;;;0.70;;
31004;SDS011;17676;52.254;4.490;2024-01-06T01:05:43;2.00;;;0.80;;
31004;SDS011;17676;52.254;4.490;2024-01-06T01:08:09;4.18;;;1.00;;
31004;SDS011;17676;52.254;4.490;2024-01-06T01:10:37;4.57;;;0.65;;
31004;SDS011;17676;52.254;4.490;2024-01-06T01:13:04;2.38;;;0.70;;
31004;SDS011;17676;52.254;4.490;2024-01-06T01:15:31;4.97;;;0.40;;
31004;SDS011;17676;52.254;4.490;2024-01-06T01:17:58;3.42;;;0.40;;
31004;SDS011;17676;52.254;4.490;2024-01-06T01:20:25;3.70;;;0.75;;
31004;SDS011;17676;52.254;4.490;2024-01-06T01:22:52;5.35;;;0.30;;
31004;SDS011;17676;52.254;4.490;2024-01-06T01:25:18;2.53;;;0.32;;
31004;SDS011;17676;52.254;4.490;2024-01-06T01:27:45;3.28;;;0.77;;
31004;SDS011;17676;52.254;4.490;2024-01-06T01:30:11;3.90;;;0.75;;
31004;SDS011;17676;52.254;4.490;2024-01-06T01:32:40;1.17;;;0.50;;
31004;SDS011;17676;52.254;4.490;2024-01-06T01:35:07;1.65;;;0.68;;
31004;SDS011;17676;52.254;4.490;2024-01-06T01:37:34;3.30;;;0.90;;
31004;SDS011;17676;52.254;4.490;2024-01-06T01:40:00;0.85;;;0.70;;
31004;SDS011;17676;52.254;4.490;2024-01-06T01:42:27;2.90;;;0.68;;
31004;SDS011;17676;52.254;4.490;2024-01-06T01:44:54;2.83;;;1.13;;
31004;SDS011;17676;52.254;4.490;2024-01-06T01:47:20;3.72;;;1.00;;
31004;SDS011;17676;52.254;4.490;2024-01-06T01:49:48;1.13;;;0.88;;
31004;SDS011;17676;52.254;4.490;2024-01-06T01:52:15;1.17;;;1.08;;
31004;SDS011;17676;52.254;4.490;2024-01-06T01:54:42;4.68;;;1.15;;
31004;SDS011;17676;52.254;4.490;2024-01-06T01:57:11;2.00;;;1.02;;
31004;SDS011;17676;52.254;4.490;2024-01-06T01:59:39;3.95;;;1.50;;
31004;SDS011;17676;52.254;4.490;2024-01-06T02:02:06;2.95;;;1.20;;
31004;SDS011;17676;52.254;4.490;2024-01-06T02:04:33;2.10;;;1.23;;
31004;SDS011;17676;52.254;4.490;2024-01-06T02:07:00;3.53;;;1.50;;
31004;SDS011;17676;52.254;4.490;2024-01-06T02:09:26;2.97;;;1.55;;
31004;SDS011;17676;52.254;4.490;2024-01-06T02:11:58;3.85;;;1.75;;
31004;SDS011;17676;52.254;4.490;2024-01-06T02:14:25;2.60;;;1.55;;
31004;SDS011;17676;52.254;4.490;2024-01-06T02:16:52;4.53;;;2.03;;
31004;SDS011;17676;52.254;4.490;2024-01-06T02:19:19;5.43;;;2.65;;
31004;SDS011;17676;52.254;4.490;2024-01-06T02:21:54;3.05;;;1.85;;
31004;SDS011;17676;52.254;4.490;2024-01-06T02:24:21;6.75;;;2.45;;
31004;SDS011;17676;52.254;4.490;2024-01-06T02:26:48;3.22;;;2.15;;
31004;SDS011;17676;52.254;4.490;2024-01-06T02:29:15;5.97;;;2.38;;
31004;SDS011;17676;52.254;4.490;2024-01-06T02:31:42;5.78;;;3.40;;
31004;SDS011;17676;52.254;4.490;2024-01-06T02:34:09;6.70;;;3.50;;
31004;SDS011;17676;52.254;4.490;2024-01-06T02:36:36;7.93;;;3.08;;
31004;SDS011;17676;52.254;4.490;2024-01-06T02:39:02;6.55;;;3.17;;
31004;SDS011;17676;52.254;4.490;2024-01-06T02:41:29;3.58;;;2.28;;
31004;SDS011;17676;52.254;4.490;2024-01-06T02:43:55;5.60;;;2.50;;
31004;SDS011;17676;52.254;4.490;2024-01-06T02:46:25;4.32;;;1.80;;
31004;SDS011;17676;52.254;4.490;2024-01-06T02:48:51;5.35;;;1.67;;
31004;SDS011;17676;52.254;4.490;2024-01-06T02:51:18;5.50;;;1.33;;
31004;SDS011;17676;52.254;4.490;2024-01-06T02:53:45;4.88;;;1.63;;
31004;SDS011;17676;52.254;4.490;2024-01-06T02:56:12;2.15;;;1.27;;
31004;SDS011;17676;52.254;4.490;2024-01-06T02:58:38;2.42;;;1.10;;
31004;SDS011;17676;52.254;4.490;2024-01-06T03:01:05;4.43;;;0.93;;
31004;SDS011;17676;52.254;4.490;2024-01-06T03:03:32;3.38;;;0.95;;
31004;SDS011;17676;52.254;4.490;2024-01-06T03:05:59;4.00;;;1.15;;
31004;SDS011;17676;52.254;4.490;2024-01-06T03:08:26;5.93;;;2.40;;
31004;SDS011;17676;52.254;4.490;2024-01-06T03:10:53;5.18;;;2.22;;
31004;SDS011;17676;52.254;4.490;2024-01-06T03:13:20;5.43;;;2.60;;
31004;SDS011;17676;52.254;4.490;2024-01-06T03:15:46;2.63;;;2.28;;
31004;SDS011;17676;52.254;4.490;2024-01-06T03:18:13;8.02;;;3.30;;
31004;SDS011;17676;52.254;4.490;2024-01-06T03:20:40;4.15;;;3.30;;
31004;SDS011;17676;52.254;4.490;2024-01-06T03:23:07;4.10;;;2.58;;
31004;SDS011;17676;52.254;4.490;2024-01-06T03:25:34;5.93;;;3.05;;
31004;SDS011;17676;52.254;4.490;2024-01-06T03:28:00;4.55;;;2.30;;
31004;SDS011;17676;52.254;4.490;2024-01-06T03:30:27;2.08;;;1.67;;
31004;SDS011;17676;52.254;4.490;2024-01-06T03:32:54;5.85;;;2.13;;
31004;SDS011;17676;52.254;4.490;2024-01-06T03:35:20;5.50;;;1.67;;
31004;SDS011;17676;52.254;4.490;2024-01-06T03:37:47;4.90;;;1.80;;
31004;SDS011;17676;52.254;4.490;2024-01-06T03:40:14;2.00;;;1.23;;
31004;SDS011;17676;52.254;4.490;2024-01-06T03:42:40;3.50;;;0.95;;
31004;SDS011;17676;52.254;4.490;2024-01-06T03:45:07;7.90;;;1.95;;
31004;SDS011;17676;52.254;4.490;2024-01-06T03:47:34;1.83;;;1.50;;
31004;SDS011;17676;52.254;4.490;2024-01-06T03:50:00;4.07;;;1.08;;
31004;SDS011;17676;52.254;4.490;2024-01-06T03:52:27;6.28;;;1.67;;
31004;SDS011;17676;52.254;4.490;2024-01-06T03:54:54;1.85;;;1.67;;
31004;SDS011;17676;52.254;4.490;2024-01-06T03:57:21;2.97;;;1.20;;
31004;SDS011;17676;52.254;4.490;2024-01-06T03:59:48;1.40;;;0.98;;
31004;SDS011;17676;52.254;4.490;2024-01-06T04:02:14;5.70;;;1.00;;
31004;SDS011;17676;52.254;4.490;2024-01-06T04:04:41;2.80;;;1.27;;
31004;SDS011;17676;52.254;4.490;2024-01-06T04:07:08;3.80;;;1.10;;
31004;SDS011;17676;52.254;4.490;2024-01-06T04:09:34;2.15;;;1.00;;
31004;SDS011;17676;52.254;4.490;2024-01-06T04:12:01;4.10;;;1.08;;
31004;SDS011;17676;52.254;4.490;2024-01-06T04:14:28;3.67;;;2.17;;
31004;SDS011;17676;52.254;4.490;2024-01-06T04:16:55;2.92;;;1.00;;
31004;SDS011;17676;52.254;4.490;2024-01-06T04:19:23;2.53;;;0.60;;
31004;SDS011;17676;52.254;4.490;2024-01-06T04:21:50;4.57;;;1.10;;
31004;SDS011;17676;52.254;4.490;2024-01-06T04:24:17;2.93;;;0.60;;
31004;SDS011;17676;52.254;4.490;2024-01-06T04:26:44;4.07;;;0.52;;
31004;SDS011;17676;52.254;4.490;2024-01-06T04:29:12;1.77;;;0.75;;
31004;SDS011;17676;52.254;4.490;2024-01-06T04:31:40;1.60;;;0.57;;
31004;SDS011;17676;52.254;4.490;2024-01-06T04:34:07;5.32;;;0.70;;
31004;SDS011;17676;52.254;4.490;2024-01-06T04:36:34;2.10;;;0.50;;
31004;SDS011;17676;52.254;4.490;2024-01-06T04:39:01;1.70;;;0.70;;
31004;SDS011;17676;52.254;4.490;2024-01-06T04:41:28;6.03;;;0.90;;
31004;SDS011;17676;52.254;4.490;2024-01-06T04:43:55;0.82;;;0.70;;
31004;SDS011;17676;52.254;4.490;2024-01-06T04:46:21;3.08;;;0.70;;
31004;SDS011;17676;52.254;4.490;2024-01-06T04:48:48;3.63;;;0.70;;
31004;SDS011;17676;52.254;4.490;2024-01-06T04:51:15;1.83;;;0.60;;
31004;SDS011;17676;52.254;4.490;2024-01-06T04:53:42;2.63;;;0.63;;
31004;SDS011;17676;52.254;4.490;2024-01-06T04:56:08;1.60;;;0.40;;
31004;SDS011;17676;52.254;4.490;2024-01-06T04:58:35;3.30;;;0.80;;
31004;SDS011;17676;52.254;4.490;2024-01-06T05:01:02;2.17;;;0.70;;
31004;SDS011;17676;52.254;4.490;2024-01-06T05:03:29;1.75;;;0.80;;
31004;SDS011;17676;52.254;4.490;2024-01-06T05:05:56;3.05;;;0.47;;
31004;SDS011;17676;52.254;4.490;2024-01-06T05:08:23;4.73;;;0.37;;
31004;SDS011;17676;52.254;4.490;2024-01-06T05:10:51;4.20;;;0.50;;
31004;SDS011;17676;52.254;4.490;2024-01-06T05:13:18;2.77;;;0.50;;
31004;SDS011;17676;52.254;4.490;2024-01-06T05:15:45;1.40;;;0.53;;
31004;SDS011;17676;52.254;4.490;2024-01-06T05:18:11;3.63;;;0.60;;
31004;SDS011;17676;52.254;4.490;2024-01-06T05:20:38;2.73;;;1.23;;
31004;SDS011;17676;52.254;4.490;2024-01-06T05:23:07;0.63;;;0.40;;
31004;SDS011;17676;52.254;4.490;2024-01-06T05:25:33;3.00;;;0.50;;
31004;SDS011;17676;52.254;4.490;2024-01-06T05:28:00;1.07;;;0.30;;
31004;SDS011;17676;52.254;4.490;2024-01-06T05:30:27;0.87;;;0.30;;
31004;SDS011;17676;52.254;4.490;2024-01-06T05:32:54;1.17;;;0.53;;
31004;SDS011;17676;52.254;4.490;2024-01-06T05:35:20;2.07;;;0.30;;
31004;SDS011;17676;52.254;4.490;2024-01-06T05:37:47;1.23;;;0.43;;
31004;SDS011;17676;52.254;4.490;2024-01-06T05:40:14;3.00;;;0.40;;
31004;SDS011;17676;52.254;4.490;2024-01-06T05:42:41;1.63;;;0.50;;
31004;SDS011;17676;52.254;4.490;2024-01-06T05:45:10;1.17;;;0.50;;
31004;SDS011;17676;52.254;4.490;2024-01-06T05:47:39;2.17;;;0.60;;
31004;SDS011;17676;52.254;4.490;2024-01-06T05:50:06;4.53;;;0.83;;
31004;SDS011;17676;52.254;4.490;2024-01-06T05:52:36;3.08;;;0.70;;
31004;SDS011;17676;52.254;4.490;2024-01-06T05:55:03;2.83;;;0.97;;
31004;SDS011;17676;52.254;4.490;2024-01-06T05:57:30;2.50;;;0.60;;
31004;SDS011;17676;52.254;4.490;2024-01-06T05:59:57;2.93;;;1.00;;
31004;SDS011;17676;52.254;4.490;2024-01-06T06:02:25;1.67;;;0.60;;
31004;SDS011;17676;52.254;4.490;2024-01-06T06:04:52;3.73;;;0.90;;
31004;SDS011;17676;52.254;4.490;2024-01-06T06:07:19;1.67;;;0.73;;
31004;SDS011;17676;52.254;4.490;2024-01-06T06:09:46;2.30;;;0.90;;
31004;SDS011;17676;52.254;4.490;2024-01-06T06:12:14;4.10;;;0.53;;
31004;SDS011;17676;52.254;4.490;2024-01-06T06:14:41;1.73;;;0.63;;
31004;SDS011;17676;52.254;4.490;2024-01-06T06:17:07;1.67;;;0.47;;
31004;SDS011;17676;52.254;4.490;2024-01-06T06:19:34;2.33;;;1.57;;
31004;SDS011;17676;52.254;4.490;2024-01-06T06:22:01;4.20;;;1.03;;
31004;SDS011;17676;52.254;4.490;2024-01-06T06:24:27;1.07;;;0.90;;
31004;SDS011;17676;52.254;4.490;2024-01-06T06:26:54;2.33;;;1.00;;
31004;SDS011;17676;52.254;4.490;2024-01-06T06:29:21;3.10;;;1.50;;
31004;SDS011;17676;52.254;4.490;2024-01-06T06:31:48;1.40;;;1.30;;
31004;SDS011;17676;52.254;4.490;2024-01-06T06:34:15;4.30;;;1.37;;
31004;SDS011;17676;52.254;4.490;2024-01-06T06:36:42;2.00;;;0.70;;
31004;SDS011;17676;52.254;4.490;2024-01-06T06:39:09;3.07;;;1.10;;
31004;SDS011;17676;52.254;4.490;2024-01-06T06:41:35;1.57;;;1.20;;
31004;SDS011;17676;52.254;4.490;2024-01-06T06:44:02;2.77;;;1.30;;
31004;SDS011;17676;52.254;4.490;2024-01-06T06:46:29;4.15;;;1.13;;
31004;SDS011;17676;52.254;4.490;2024-01-06T06:48:55;2.13;;;1.00;;
31004;SDS011;17676;52.254;4.490;2024-01-06T06:51:22;4.17;;;1.47;;
31004;SDS011;17676;52.254;4.490;2024-01-06T06:53:52;3.53;;;1.07;;
31004;SDS011;17676;52.254;4.490;2024-01-06T06:56:19;5.30;;;1.17;;
31004;SDS011;17676;52.254;4.490;2024-01-06T06:58:46;2.08;;;1.20;;
31004;SDS011;17676;52.254;4.490;2024-01-06T07:01:15;3.23;;;1.43;;
31004;SDS011;17676;52.254;4.490;2024-01-06T07:03:43;2.97;;;1.20;;
31004;SDS011;17676;52.254;4.490;2024-01-06T07:06:12;5.10;;;1.80;;
31004;SDS011;17676;52.254;4.490;2024-01-06T07:08:40;2.17;;;1.73;;
31004;SDS011;17676;52.254;4.490;2024-01-06T07:11:08;4.07;;;2.03;;
31004;SDS011;17676;52.254;4.490;2024-01-06T07:13:35;3.80;;;2.20;;
31004;SDS011;17676;52.254;4.490;2024-01-06T07:16:01;5.80;;;3.40;;
31004;SDS011;17676;52.254;4.490;2024-01-06T07:18:43;4.60;;;2.10;;
31004;SDS011;17676;52.254;4.490;2024-01-06T07:21:11;4.90;;;1.70;;
31004;SDS011;17676;52.254;4.490;2024-01-06T07:23:39;3.67;;;1.50;;
31004;SDS011;17676;52.254;4.490;2024-01-06T07:26:05;6.90;;;1.55;;
31004;SDS011;17676;52.254;4.490;2024-01-06T07:28:32;3.03;;;1.30;;
31004;SDS011;17676;52.254;4.490;2024-01-06T07:31:00;3.67;;;1.40;;
31004;SDS011;17676;52.254;4.490;2024-01-06T07:33:27;2.83;;;1.90;;
31004;SDS011;17676;52.254;4.490;2024-01-06T07:35:55;6.07;;;1.97;;
31004;SDS011;17676;52.254;4.490;2024-01-06T07:38:21;5.10;;;2.33;;
31004;SDS011;17676;52.254;4.490;2024-01-06T07:40:48;4.27;;;2.83;;
31004;SDS011;17676;52.254;4.490;2024-01-06T07:43:14;5.33;;;2.60;;
31004;SDS011;17676;52.254;4.490;2024-01-06T07:45:41;6.80;;;2.40;;
31004;SDS011;17676;52.254;4.490;2024-01-06T07:48:08;5.13;;;2.47;;
31004;SDS011;17676;52.254;4.490;2024-01-06T07:50:35;9.00;;;2.30;;
31004;SDS011;17676;52.254;4.490;2024-01-06T07:53:01;7.43;;;2.43;;
31004;SDS011;17676;52.254;4.490;2024-01-06T07:55:28;3.57;;;2.10;;
31004;SDS011;17676;52.254;4.490;2024-01-06T07:57:55;4.00;;;2.20;;
31004;SDS011;17676;52.254;4.490;2024-01-06T08:00:22;7.47;;;2.53;;
31004;SDS011;17676;52.254;4.490;2024-01-06T08:02:48;5.97;;;2.93;;
31004;SDS011;17676;52.254;4.490;2024-01-06T08:05:15;7.00;;;2.97;;
31004;SDS011;17676;52.254;4.490;2024-01-06T08:07:42;6.03;;;2.20;;
31004;SDS011;17676;52.254;4.490;2024-01-06T08:10:08;3.80;;;1.53;;
31004;SDS011;17676;52.254;4.490;2024-01-06T08:12:35;6.97;;;1.77;;
31004;SDS011;17676;52.254;4.490;2024-01-06T08:15:03;2.53;;;1.37;;
31004;SDS011;17676;52.254;4.490;2024-01-06T08:17:31;2.93;;;1.70;;
31004;SDS011;17676;52.254;4.490;2024-01-06T08:19:57;4.63;;;2.70;;
31004;SDS011;17676;52.254;4.490;2024-01-06T08:22:24;5.80;;;1.60;;
31004;SDS011;17676;52.254;4.490;2024-01-06T08:24:51;2.33;;;1.33;;
31004;SDS011;17676;52.254;4.490;2024-01-06T08:27:18;2.13;;;0.70;;
31004;SDS011;17676;52.254;4.490;2024-01-06T08:29:45;1.80;;;1.20;;
31004;SDS011;17676;52.254;4.490;2024-01-06T08:32:12;4.37;;;1.10;;
31004;SDS011;17676;52.254;4.490;2024-01-06T08:34:41;1.53;;;0.90;;
31004;SDS011;17676;52.254;4.490;2024-01-06T08:37:08;3.70;;;1.50;;
31004;SDS011;17676;52.254;4.490;2024-01-06T08:39:34;6.33;;;1.70;;
31004;SDS011;17676;52.254;4.490;2024-01-06T08:42:01;3.33;;;1.40;;
31004;SDS011;17676;52.254;4.490;2024-01-06T08:44:28;3.13;;;1.57;;
31004;SDS011;17676;52.254;4.490;2024-01-06T08:46:55;4.27;;;1.67;;
31004;SDS011;17676;52.254;4.490;2024-01-06T08:49:22;4.37;;;1.50;;
31004;SDS011;17676;52.254;4.490;2024-01-06T08:51:49;3.57;;;1.37;;
31004;SDS011;17676;52.254;4.490;2024-01-06T08:54:16;2.60;;;1.20;;
31004;SDS011;17676;52.254;4.490;2024-01-06T08:56:43;2.27;;;1.00;;
31004;SDS011;17676;52.254;4.490;2024-01-06T08:59:09;6.63;;;0.97;;
31004;SDS011;17676;52.254;4.490;2024-01-06T09:01:36;2.60;;;0.70;;
31004;SDS011;17676;52.254;4.490;2024-01-06T09:04:04;4.50;;;0.65;;
31004;SDS011;17676;52.254;4.490;2024-01-06T09:06:33;3.07;;;0.70;;
31004;SDS011;17676;52.254;4.490;2024-01-06T09:09:00;3.30;;;0.60;;
31004;SDS011;17676;52.254;4.490;2024-01-06T09:11:26;4.97;;;0.80;;
31004;SDS011;17676;52.254;4.490;2024-01-06T09:13:53;2.40;;;0.52;;
31004;SDS011;17676;52.254;4.490;2024-01-06T09:16:20;5.20;;;0.63;;
31004;SDS011;17676;52.254;4.490;2024-01-06T09:18:47;2.87;;;0.60;;
31004;SDS011;17676;52.254;4.490;2024-01-06T09:21:15;1.37;;;0.43;;
31004;SDS011;17676;52.254;4.490;2024-01-06T09:23:44;1.65;;;0.60;;
31004;SDS011;17676;52.254;4.490;2024-01-06T09:26:10;1.20;;;0.65;;
31004;SDS011;17676;52.254;4.490;2024-01-06T09:28:37;2.30;;;0.60;;
31004;SDS011;17676;52.254;4.490;2024-01-06T09:31:04;1.05;;;0.40;;
31004;SDS011;17676;52.254;4.490;2024-01-06T09:33:31;2.13;;;0.50;;
31004;SDS011;17676;52.254;4.490;2024-01-06T09:36:03;2.47;;;0.50;;
31004;SDS011;17676;52.254;4.490;2024-01-06T09:38:30;1.77;;;0.68;;
31004;SDS011;17676;52.254;4.490;2024-01-06T09:40:56;3.20;;;0.70;;
31004;SDS011;17676;52.254;4.490;2024-01-06T09:43:24;1.57;;;0.50;;
31004;SDS011;17676;52.254;4.490;2024-01-06T09:46:01;3.65;;;0.57;;
31004;SDS011;17676;52.254;4.490;2024-01-06T09:48:41;2.13;;;0.60;;
31004;SDS011;17676;52.254;4.490;2024-01-06T09:51:11;3.60;;;0.80;;
31004;SDS011;17676;52.254;4.490;2024-01-06T09:53:48;2.28;;;0.60;;
31004;SDS011;17676;52.254;4.490;2024-01-06T09:56:18;2.47;;;0.52;;
31004;SDS011;17676;52.254;4.490;2024-01-06T09:58:45;4.05;;;1.20;;
31004;SDS011;17676;52.254;4.490;2024-01-06T10:01:12;1.52;;;0.70;;
31004;SDS011;17676;52.254;4.490;2024-01-06T10:03:41;1.70;;;0.90;;
31004;SDS011;17676;52.254;4.490;2024-01-06T10:06:08;3.30;;;0.73;;
31004;SDS011;17676;52.254;4.490;2024-01-06T10:08:36;2.33;;;0.70;;
31004;SDS011;17676;52.254;4.490;2024-01-06T10:11:03;2.88;;;0.80;;
31004;SDS011;17676;52.254;4.490;2024-01-06T10:13:30;3.92;;;0.80;;
31004;SDS011;17676;52.254;4.490;2024-01-06T10:15:56;3.60;;;1.27;;
31004;SDS011;17676;52.254;4.490;2024-01-06T10:18:24;4.05;;;0.70;;
31004;SDS011;17676;52.254;4.490;2024-01-06T10:20:53;3.28;;;1.00;;
31004;SDS011;17676;52.254;4.490;2024-01-06T10:23:22;3.07;;;0.70;;
31004;SDS011;17676;52.254;4.490;2024-01-06T10:25:53;2.67;;;1.27;;
31004;SDS011;17676;52.254;4.490;2024-01-06T10:28:24;2.10;;;0.90;;
31004;SDS011;17676;52.254;4.490;2024-01-06T10:30:51;3.25;;;1.10;;
31004;SDS011;17676;52.254;4.490;2024-01-06T10:33:20;3.20;;;1.27;;
31004;SDS011;17676;52.254;4.490;2024-01-06T10:35:49;2.53;;;1.25;;
31004;SDS011;17676;52.254;4.490;2024-01-06T10:38:15;5.57;;;1.33;;
31004;SDS011;17676;52.254;4.490;2024-01-06T10:41:01;3.47;;;1.25;;
31004;SDS011;17676;52.254;4.490;2024-01-06T10:43:36;5.43;;;1.60;;
31004;SDS011;17676;52.254;4.490;2024-01-06T10:46:10;2.22;;;1.48;;
31004;SDS011;17676;52.254;4.490;2024-01-06T10:48:38;4.10;;;1.65;;
31004;SDS011;17676;52.254;4.490;2024-01-06T10:51:09;4.63;;;1.30;;
31004;SDS011;17676;52.254;4.490;2024-01-06T10:53:37;4.22;;;1.35;;
31004;SDS011;17676;52.254;4.490;2024-01-06T10:56:05;1.40;;;1.13;;
31004;SDS011;17676;52.254;4.490;2024-01-06T10:58:37;3.70;;;0.90;;
31004;SDS011;17676;52.254;4.490;2024-01-06T11:01:14;7.65;;;1.00;;
31004;SDS011;17676;52.254;4.490;2024-01-06T11:03:47;1.30;;;1.02;;
31004;SDS011;17676;52.254;4.490;2024-01-06T11:06:15;1.27;;;0.73;;
31004;SDS011;17676;52.254;4.490;2024-01-06T11:08:46;4.55;;;1.15;;
31004;SDS011;17676;52.254;4.490;2024-01-06T11:11:18;3.75;;;0.75;;
31004;SDS011;17676;52.254;4.490;2024-01-06T11:13:46;2.50;;;0.70;;
31004;SDS011;17676;52.254;4.490;2024-01-06T11:16:33;2.67;;;0.88;;
31004;SDS011;17676;52.254;4.490;2024-01-06T11:19:01;2.60;;;0.68;;
31004;SDS011;17676;52.254;4.490;2024-01-06T11:21:33;4.90;;;0.55;;
31004;SDS011;17676;52.254;4.490;2024-01-06T11:26:33;2.92;;;0.70;;
31004;SDS011;17676;52.254;4.490;2024-01-06T11:29:00;2.67;;;0.55;;
31004;SDS011;17676;52.254;4.490;2024-01-06T11:31:33;1.40;;;0.63;;
31004;SDS011;17676;52.254;4.490;2024-01-06T11:34:12;1.65;;;0.35;;
31004;SDS011;17676;52.254;4.490;2024-01-06T11:36:43;2.35;;;0.30;;
31004;SDS011;17676;52.254;4.490;2024-01-06T11:42:06;2.20;;;0.40;;
31004;SDS011;17676;52.254;4.490;2024-01-06T11:44:38;2.63;;;0.32;;
31004;SDS011;17676;52.254;4.490;2024-01-06T11:47:06;2.95;;;0.30;;
31004;SDS011;17676;52.254;4.490;2024-01-06T11:49:33;0.50;;;0.20;;
31004;SDS011;17676;52.254;4.490;2024-01-06T11:52:00;1.10;;;0.43;;
31004;SDS011;17676;52.254;4.490;2024-01-06T11:54:27;0.63;;;0.40;;
31004;SDS011;17676;52.254;4.490;2024-01-06T11:56:54;1.55;;;0.52;;
31004;SDS011;17676;52.254;4.490;2024-01-06T11:59:22;3.50;;;0.40;;
31004;SDS011;17676;52.254;4.490;2024-01-06T12:01:48;1.95;;;0.60;;
31004;SDS011;17676;52.254;4.490;2024-01-06T12:04:15;2.05;;;0.45;;
31004;SDS011;17676;52.254;4.490;2024-01-06T12:06:44;3.83;;;0.50;;
31004;SDS011;17676;52.254;4.490;2024-01-06T12:09:11;6.63;;;0.60;;
31004;SDS011;17676;52.254;4.490;2024-01-06T12:11:41;2.92;;;0.50;;
31004;SDS011;17676;52.254;4.490;2024-01-06T12:14:11;7.20;;;0.80;;
31004;SDS011;17676;52.254;4.490;2024-01-06T12:16:38;4.68;;;0.57;;
31004;SDS011;17676;52.254;4.490;2024-01-06T12:19:04;2.53;;;0.50;;
31004;SDS011;17676;52.254;4.490;2024-01-06T12:21:31;1.17;;;0.28;;
31004;SDS011;17676;52.254;4.490;2024-01-06T12:24:15;1.42;;;0.40;;
31004;SDS011;17676;52.254;4.490;2024-01-06T12:26:44;2.15;;;0.30;;
31004;SDS011;17676;52.254;4.490;2024-01-06T12:29:12;2.70;;;0.40;;
31004;SDS011;17676;52.254;4.490;2024-01-06T12:31:40;1.35;;;0.28;;
31004;SDS011;17676;52.254;4.490;2024-01-06T12:34:07;2.05;;;0.50;;
31004;SDS011;17676;52.254;4.490;2024-01-06T12:36:34;3.03;;;0.50;;
31004;SDS011;17676;52.254;4.490;2024-01-06T12:39:02;2.03;;;0.40;;
31004;SDS011;17676;52.254;4.490;2024-01-06T12:41:29;1.40;;;0.73;;
31004;SDS011;17676;52.254;4.490;2024-01-06T12:43:57;1.77;;;0.40;;
31004;SDS011;17676;52.254;4.490;2024-01-06T12:46:24;0.52;;;0.50;;
31004;SDS011;17676;52.254;4.490;2024-01-06T12:48:50;2.75;;;0.30;;
31004;SDS011;17676;52.254;4.490;2024-01-06T12:51:17;2.35;;;0.30;;
31004;SDS011;17676;52.254;4.490;2024-01-06T12:53:44;0.85;;;0.30;;
31004;SDS011;17676;52.254;4.490;2024-01-06T12:56:10;0.40;;;0.40;;
31004;SDS011;17676;52.254;4.490;2024-01-06T12:58:37;1.33;;;0.22;;
31004;SDS011;17676;52.254;4.490;2024-01-06T13:01:04;1.75;;;0.30;;
31004;SDS011;17676;52.254;4.490;2024-01-06T13:03:31;0.70;;;0.38;;
31004;SDS011;17676;52.254;4.490;2024-01-06T13:05:58;1.83;;;0.50;;
31004;SDS011;17676;52.254;4.490;2024-01-06T13:08:25;1.08;;;0.30;;
31004;SDS011;17676;52.254;4.490;2024-01-06T13:10:52;1.20;;;0.22;;
31004;SDS011;17676;52.254;4.490;2024-01-06T13:13:19;1.23;;;0.30;;
31004;SDS011;17676;52.254;4.490;2024-01-06T13:15:46;1.63;;;0.32;;
31004;SDS011;17676;52.254;4.490;2024-01-06T13:18:12;1.35;;;0.40;;
31004;SDS011;17676;52.254;4.490;2024-01-06T13:20:39;2.30;;;0.30;;
31004;SDS011;17676;52.254;4.490;2024-01-06T13:23:08;3.72;;;0.30;;
31004;SDS011;17676;52.254;4.490;2024-01-06T13:25:34;1.00;;;0.30;;
31004;SDS011;17676;52.254;4.490;2024-01-06T13:28:01;1.30;;;0.30;;
31004;SDS011;17676;52.254;4.490;2024-01-06T13:30:28;1.20;;;0.47;;
31004;SDS011;17676;52.254;4.490;2024-01-06T13:32:55;1.55;;;0.50;;
31004;SDS011;17676;52.254;4.490;2024-01-06T13:35:22;2.92;;;0.30;;
31004;SDS011;17676;52.254;4.490;2024-01-06T13:37:51;1.38;;;0.40;;
31004;SDS011;17676;52.254;4.490;2024-01-06T13:40:18;1.10;;;0.40;;
31004;SDS011;17676;52.254;4.490;2024-01-06T13:42:48;1.02;;;0.50;;
31004;SDS011;17676;52.254;4.490;2024-01-06T13:45:17;1.75;;;0.43;;
31004;SDS011;17676;52.254;4.490;2024-01-06T13:47:44;1.90;;;0.30;;
31004;SDS011;17676;52.254;4.490;2024-01-06T13:50:12;2.08;;;0.40;;
31004;SDS011;17676;52.254;4.490;2024-01-06T13:52:42;2.67;;;0.30;;
31004;SDS011;17676;52.254;4.490;2024-01-06T13:55:10;1.40;;;0.40;;
31004;SDS011;17676;52.254;4.490;2024-01-06T13:57:38;0.75;;;0.30;;
31004;SDS011;17676;52.254;4.490;2024-01-06T14:00:08;1.90;;;0.40;;
31004;SDS011;17676;52.254;4.490;2024-01-06T14:02:37;1.77;;;0.32;;
31004;SDS011;17676;52.254;4.490;2024-01-06T14:05:04;2.20;;;0.30;;
31004;SDS011;17676;52.254;4.490;2024-01-06T14:07:35;1.15;;;0.30;;
31004;SDS011;17676;52.254;4.490;2024-01-06T14:10:04;1.75;;;0.20;;
31004;SDS011;17676;52.254;4.490;2024-01-06T14:12:31;1.05;;;0.30;;
31004;SDS011;17676;52.254;4.490;2024-01-06T14:14:58;1.05;;;0.30;;
31004;SDS011;17676;52.254;4.490;2024-01-06T14:17:25;1.20;;;0.30;;
31004;SDS011;17676;52.254;4.490;2024-01-06T14:19:52;2.40;;;0.30;;
31004;SDS011;17676;52.254;4.490;2024-01-06T14:22:18;2.47;;;0.30;;
31004;SDS011;17676;52.254;4.490;2024-01-06T14:24:45;1.92;;;0.30;;
31004;SDS011;17676;52.254;4.490;2024-01-06T14:27:12;1.77;;;0.30;;
31004;SDS011;17676;52.254;4.490;2024-01-06T14:29:39;2.00;;;0.43;;
31004;SDS011;17676;52.254;4.490;2024-01-06T14:32:06;3.00;;;0.52;;
31004;SDS011;17676;52.254;4.490;2024-01-06T14:34:33;1.67;;;0.52;;
31004;SDS011;17676;52.254;4.490;2024-01-06T14:37:00;2.10;;;0.50;;
31004;SDS011;17676;52.254;4.490;2024-01-06T14:39:27;1.63;;;0.50;;
31004;SDS011;17676;52.254;4.490;2024-01-06T14:41:54;3.03;;;0.50;;
31004;SDS011;17676;52.254;4.490;2024-01-06T14:44:21;0.97;;;0.30;;
31004;SDS011;17676;52.254;4.490;2024-01-06T14:46:48;1.38;;;0.40;;
31004;SDS011;17676;52.254;4.490;2024-01-06T14:49:17;2.40;;;0.40;;
31004;SDS011;17676;52.254;4.490;2024-01-06T14:51:44;1.73;;;0.30;;
31004;SDS011;17676;52.254;4.490;2024-01-06T14:54:11;1.73;;;0.40;;
31004;SDS011;17676;52.254;4.490;2024-01-06T14:56:38;0.77;;;0.50;;